Terminal Aerodrome Forecast
Issued by NWS Missoula, MT

Home | Current Version | Previous Version | Text Only | Print | Product List | Glossary On
Versions: 1 2 3 4 5 6 7 8 9 10 11 12 13 14
781
FTUS45 KMSO 301134
TAFGPI
TAF
KGPI 301134Z 3012/3112 02005KT P6SM SKC
     FM301500 19007KT P6SM SKC
     FM301900 22010KT P6SM FEW250
     FM310300 25003KT P6SM SKC=

USA.gov is the U.S. government's official web portal to all federal, state and local government web resources and services.